createdAt,value
2016-12-05T00:00:02.956Z,1021.2
2016-12-05T00:00:29.054Z,1021.19
2016-12-05T00:00:55.132Z,1021.19
2016-12-05T00:01:21.246Z,1021.22
2016-12-05T00:01:47.341Z,1021.19
2016-12-05T00:02:13.420Z,1021.18
2016-12-05T00:02:39.536Z,1021.2
2016-12-05T00:03:05.631Z,1021.17
2016-12-05T00:03:31.813Z,1021.17
2016-12-05T00:03:57.890Z,1021.17
2016-12-05T00:04:24.018Z,1021.15
2016-12-05T00:04:50.109Z,1021.16
2016-12-05T00:05:16.193Z,1021.14
2016-12-05T00:05:42.287Z,1021.13
2016-12-05T00:06:08.376Z,1021.14
2016-12-05T00:06:34.458Z,1021.14
2016-12-05T00:07:00.554Z,1021.12
2016-12-05T00:07:26.648Z,1021.11
2016-12-05T00:07:52.724Z,1021.13
2016-12-05T00:08:18.818Z,1021.14
2016-12-05T00:08:44.916Z,1021.14
2016-12-05T00:09:10.997Z,1021.14
2016-12-05T00:09:37.082Z,1021.17
2016-12-05T00:10:03.178Z,1021.13
2016-12-05T00:10:29.262Z,1021.11
2016-12-05T00:10:55.344Z,1021.12
2016-12-05T00:11:21.436Z,1021.12
2016-12-05T00:11:47.526Z,1021.11
2016-12-05T00:12:13.621Z,1021.11
2016-12-05T00:12:39.701Z,1021.13
2016-12-05T00:13:05.789Z,1021.14
2016-12-05T00:13:31.882Z,1021.09
2016-12-05T00:13:57.966Z,1021.1
2016-12-05T00:14:24.047Z,1021.11
2016-12-05T00:14:50.150Z,1021.14
2016-12-05T00:15:16.235Z,1021.1
2016-12-05T00:15:42.315Z,1021.15
2016-12-05T00:16:08.409Z,1021.1
2016-12-05T00:16:34.499Z,1021.11
2016-12-05T00:17:00.591Z,1021.13
2016-12-05T00:17:26.674Z,1021.1
2016-12-05T00:17:52.759Z,1021.1
2016-12-05T00:18:18.856Z,1021.1
2016-12-05T00:18:44.938Z,1021.12
2016-12-05T00:19:11.021Z,1021.09
2016-12-05T00:19:37.114Z,1021.09
2016-12-05T00:20:03.203Z,1021.08
2016-12-05T00:20:29.281Z,1021.09
2016-12-05T00:20:55.371Z,1021.09
2016-12-05T00:21:21.468Z,1021.1
2016-12-05T00:21:47.544Z,1021.11
2016-12-05T00:22:13.634Z,1021.1
2016-12-05T00:22:39.720Z,1021.12
2016-12-05T00:23:05.814Z,1021.11
2016-12-05T00:23:31.908Z,1021.11
2016-12-05T00:23:57.982Z,1021.1
2016-12-05T00:24:24.074Z,1021.11
2016-12-05T00:24:50.164Z,1021.13
2016-12-05T00:25:16.242Z,1021.12
2016-12-05T00:25:42.327Z,1021.08
2016-12-05T00:26:08.424Z,1021.11
2016-12-05T00:26:34.500Z,1021.09
2016-12-05T00:27:00.585Z,1021.11
2016-12-05T00:27:26.679Z,1021.09
2016-12-05T00:27:52.761Z,1021.08
2016-12-05T00:28:18.845Z,1021.13
2016-12-05T00:28:44.939Z,1021.09
2016-12-05T00:29:11.032Z,1021.12
2016-12-05T00:29:37.112Z,1021.09
2016-12-05T00:30:03.203Z,1021.1
2016-12-05T00:30:29.291Z,1021.12
2016-12-05T00:30:55.373Z,1021.06
2016-12-05T00:31:21.468Z,1021.08
2016-12-05T00:31:47.563Z,1021.11
2016-12-05T00:32:13.636Z,1021.08
2016-12-05T00:32:39.725Z,1021.07
2016-12-05T00:33:05.821Z,1021.13
2016-12-05T00:33:31.906Z,1021.13
2016-12-05T00:33:58.099Z,1021.08
2016-12-05T00:34:24.176Z,1021.11
2016-12-05T00:34:50.268Z,1021.09
2016-12-05T00:35:16.363Z,1021.11
2016-12-05T00:35:42.440Z,1021.05
2016-12-05T00:36:08.533Z,1021.09
2016-12-05T00:36:34.625Z,1021.04
2016-12-05T00:37:00.706Z,1021.03
2016-12-05T00:37:26.789Z,1021.05
2016-12-05T00:37:52.887Z,1021.04
2016-12-05T00:38:18.972Z,1021.04
2016-12-05T00:38:45.052Z,1021.01
2016-12-05T00:39:11.141Z,1021.01
2016-12-05T00:39:37.229Z,1021.05
2016-12-05T00:40:03.325Z,1021.04
2016-12-05T00:40:29.403Z,1021.01
2016-12-05T00:40:55.490Z,1021.06
2016-12-05T00:41:21.584Z,1021.03
2016-12-05T00:41:47.670Z,1021.04
2016-12-05T00:42:13.750Z,1020.99
2016-12-05T00:42:39.848Z,1021.01
2016-12-05T00:43:05.934Z,1021
2016-12-05T00:43:32.014Z,1021.02
2016-12-05T00:43:58.111Z,1021
2016-12-05T00:44:24.202Z,1021
2016-12-05T00:44:50.288Z,1021.03
2016-12-05T00:45:16.370Z,1021.03
2016-12-05T00:45:42.451Z,1021.02
2016-12-05T00:46:08.545Z,1021.01
2016-12-05T00:46:34.640Z,1021.04
2016-12-05T00:47:00.705Z,1021.04
2016-12-05T00:47:26.801Z,1020.99
2016-12-05T00:47:52.884Z,1021.02
2016-12-05T00:48:18.965Z,1021.04
2016-12-05T00:48:45.055Z,1021.04
2016-12-05T00:49:11.148Z,1021
2016-12-05T00:49:37.226Z,1021.02
2016-12-05T00:50:03.315Z,1021.03
2016-12-05T00:50:29.413Z,1021.03
2016-12-05T00:50:55.494Z,1020.99
2016-12-05T00:51:21.581Z,1021.03
2016-12-05T00:51:47.677Z,1021.03
2016-12-05T00:52:13.764Z,1021
2016-12-05T00:52:39.842Z,1020.99
2016-12-05T00:53:05.937Z,1021
2016-12-05T00:53:32.025Z,1020.98
2016-12-05T00:53:58.103Z,1020.97
2016-12-05T00:54:24.201Z,1021.01
2016-12-05T00:54:50.291Z,1020.98
2016-12-05T00:55:16.371Z,1020.99
2016-12-05T00:55:42.462Z,1021.02
2016-12-05T00:56:08.536Z,1020.98
2016-12-05T00:56:34.634Z,1020.99
2016-12-05T00:57:00.717Z,1020.98
2016-12-05T00:57:26.798Z,1020.97
2016-12-05T00:57:52.890Z,1021
2016-12-05T00:58:18.980Z,1020.98
2016-12-05T00:58:45.062Z,1020.98
2016-12-05T00:59:11.152Z,1021
2016-12-05T00:59:37.249Z,1021.01
2016-12-05T01:00:03.347Z,1021.01
2016-12-05T01:00:29.439Z,1021.01
2016-12-05T01:00:55.535Z,1021.01
2016-12-05T01:01:21.617Z,1020.98
2016-12-05T01:01:47.705Z,1021.02
2016-12-05T01:02:13.783Z,1021
2016-12-05T01:02:39.877Z,1020.98
2016-12-05T01:03:05.977Z,1020.96
2016-12-05T01:03:32.052Z,1021.01
2016-12-05T01:03:58.136Z,1020.99
2016-12-05T01:04:24.235Z,1021
2016-12-05T01:04:50.318Z,1021.02
2016-12-05T01:05:16.409Z,1021.04
2016-12-05T01:05:42.505Z,1021.03
2016-12-05T01:06:08.591Z,1020.98
2016-12-05T01:06:34.670Z,1020.97
2016-12-05T01:07:00.767Z,1020.99
2016-12-05T01:07:26.858Z,1020.96
2016-12-05T01:07:52.949Z,1020.97
2016-12-05T01:08:19.033Z,1020.94
2016-12-05T01:08:45.119Z,1020.97
2016-12-05T01:09:11.213Z,1020.98
2016-12-05T01:09:37.293Z,1020.97
2016-12-05T01:10:03.375Z,1020.94
2016-12-05T01:10:29.471Z,1020.98
2016-12-05T01:10:55.557Z,1020.94
2016-12-05T01:11:21.639Z,1021
2016-12-05T01:11:47.733Z,1020.99
2016-12-05T01:12:13.819Z,1020.98
2016-12-05T01:12:39.907Z,1020.97
2016-12-05T01:13:05.990Z,1020.96
2016-12-05T01:13:32.071Z,1020.96
2016-12-05T01:13:58.167Z,1020.98
2016-12-05T01:14:24.250Z,1020.96
2016-12-05T01:14:50.331Z,1020.95
2016-12-05T01:15:16.425Z,1020.95
2016-12-05T01:15:42.516Z,1020.93
2016-12-05T01:16:08.594Z,1020.93
2016-12-05T01:16:34.687Z,1020.93
2016-12-05T01:17:00.781Z,1020.93
2016-12-05T01:17:26.862Z,1020.91
2016-12-05T01:17:52.950Z,1020.92
2016-12-05T01:18:19.032Z,1020.89
2016-12-05T01:18:45.128Z,1020.92
2016-12-05T01:19:11.214Z,1020.88
2016-12-05T01:19:37.292Z,1020.92
2016-12-05T01:20:03.406Z,1020.89
2016-12-05T01:20:29.504Z,1020.84
2016-12-05T01:20:55.581Z,1020.86
2016-12-05T01:21:21.665Z,1020.9
2016-12-05T01:21:47.760Z,1020.88
2016-12-05T01:22:13.842Z,1020.85
2016-12-05T01:22:39.926Z,1020.83
2016-12-05T01:23:06.020Z,1020.87
2016-12-05T01:23:32.102Z,1020.89
2016-12-05T01:23:58.196Z,1020.86
2016-12-05T01:24:24.372Z,1020.87
2016-12-05T01:24:50.461Z,1020.88
2016-12-05T01:25:16.556Z,1020.87
2016-12-05T01:25:42.636Z,1020.86
2016-12-05T01:26:08.719Z,1020.87
2016-12-05T01:26:34.814Z,1020.84
2016-12-05T01:27:00.898Z,1020.85
2016-12-05T01:27:26.981Z,1020.86
2016-12-05T01:27:53.078Z,1020.87
2016-12-05T01:28:19.168Z,1020.88
2016-12-05T01:28:45.251Z,1020.86
2016-12-05T01:29:11.345Z,1020.88
2016-12-05T01:29:37.432Z,1020.84
2016-12-05T01:30:03.528Z,1020.81
2016-12-05T01:30:29.607Z,1020.83
2016-12-05T01:30:55.690Z,1020.87
2016-12-05T01:31:21.789Z,1020.83
2016-12-05T01:31:47.875Z,1020.83
2016-12-05T01:32:13.950Z,1020.85
2016-12-05T01:32:40.045Z,1020.86
2016-12-05T01:33:06.130Z,1020.82
2016-12-05T01:33:32.214Z,1020.83
2016-12-05T01:33:58.303Z,1020.83
2016-12-05T01:34:24.396Z,1020.83
2016-12-05T01:34:50.474Z,1020.8
2016-12-05T01:35:16.561Z,1020.83
2016-12-05T01:35:42.655Z,1020.87
2016-12-05T01:36:08.736Z,1020.82
2016-12-05T01:36:34.818Z,1020.82
2016-12-05T01:37:00.913Z,1020.83
2016-12-05T01:37:26.992Z,1020.8
2016-12-05T01:37:53.074Z,1020.83
2016-12-05T01:38:19.165Z,1020.83
2016-12-05T01:38:45.252Z,1020.85
2016-12-05T01:39:11.333Z,1020.83
2016-12-05T01:39:37.427Z,1020.84
2016-12-05T01:40:03.519Z,1020.85
2016-12-05T01:40:29.603Z,1020.84
2016-12-05T01:40:55.686Z,1020.82
2016-12-05T01:41:21.767Z,1020.79
2016-12-05T01:41:47.865Z,1020.8
2016-12-05T01:42:13.952Z,1020.8
2016-12-05T01:42:40.031Z,1020.81
2016-12-05T01:43:06.130Z,1020.83
2016-12-05T01:43:32.216Z,1020.84
2016-12-05T01:43:58.299Z,1020.83
2016-12-05T01:44:24.386Z,1020.83
2016-12-05T01:44:50.476Z,1020.86
2016-12-05T01:45:16.553Z,1020.88
2016-12-05T01:45:42.658Z,1020.84
2016-12-05T01:46:08.738Z,1020.86
2016-12-05T01:46:34.833Z,1020.86
2016-12-05T01:47:00.926Z,1020.87
2016-12-05T01:47:27.004Z,1020.85
2016-12-05T01:47:53.096Z,1020.89
2016-12-05T01:48:19.188Z,1020.89
2016-12-05T01:48:45.265Z,1020.92
2016-12-05T01:49:11.354Z,1020.88
2016-12-05T01:49:37.445Z,1020.9
2016-12-05T01:50:03.527Z,1020.91
2016-12-05T01:50:29.616Z,1020.85
2016-12-05T01:50:55.708Z,1020.89
2016-12-05T01:51:21.789Z,1020.88
2016-12-05T01:51:47.887Z,1020.87
2016-12-05T01:52:13.960Z,1020.86
2016-12-05T01:52:40.049Z,1020.87
2016-12-05T01:53:06.148Z,1020.83
2016-12-05T01:53:32.231Z,1020.86
2016-12-05T01:53:58.314Z,1020.85
2016-12-05T01:54:24.507Z,1020.88
2016-12-05T01:54:50.586Z,1020.85
2016-12-05T01:55:16.689Z,1020.84
2016-12-05T01:55:42.785Z,1020.82
2016-12-05T01:56:08.871Z,1020.86
2016-12-05T01:56:34.953Z,1020.83
2016-12-05T01:57:01.046Z,1020.83
2016-12-05T01:57:27.131Z,1020.83
2016-12-05T01:57:53.228Z,1020.84
2016-12-05T01:58:19.313Z,1020.87
2016-12-05T01:58:45.393Z,1020.85
2016-12-05T01:59:11.499Z,1020.85
2016-12-05T01:59:37.589Z,1020.86
2016-12-05T02:00:03.662Z,1020.85
2016-12-05T02:00:29.761Z,1020.87
2016-12-05T02:00:55.843Z,1020.84
2016-12-05T02:01:21.922Z,1020.81
2016-12-05T02:01:48.013Z,1020.83
2016-12-05T02:02:14.105Z,1020.82
2016-12-05T02:02:40.185Z,1020.83
2016-12-05T02:03:06.274Z,1020.82
2016-12-05T02:03:32.355Z,1020.86
2016-12-05T02:03:58.450Z,1020.84
2016-12-05T02:04:24.542Z,1020.86
2016-12-05T02:04:50.624Z,1020.83
2016-12-05T02:05:16.717Z,1020.79
2016-12-05T02:05:42.811Z,1020.78
2016-12-05T02:06:08.884Z,1020.83
2016-12-05T02:06:34.975Z,1020.8
2016-12-05T02:07:01.073Z,1020.77
2016-12-05T02:07:27.152Z,1020.78
2016-12-05T02:07:53.240Z,1020.81
2016-12-05T02:08:19.327Z,1020.81
2016-12-05T02:08:45.413Z,1020.81
2016-12-05T02:09:11.507Z,1020.77
2016-12-05T02:09:37.586Z,1020.78
2016-12-05T02:10:03.678Z,1020.8
2016-12-05T02:10:29.768Z,1020.76
2016-12-05T02:10:55.851Z,1020.75
2016-12-05T02:11:21.945Z,1020.73
2016-12-05T02:11:48.036Z,1020.73
2016-12-05T02:12:14.122Z,1020.72
2016-12-05T02:12:40.203Z,1020.69
2016-12-05T02:13:06.298Z,1020.73
2016-12-05T02:13:32.383Z,1020.75
2016-12-05T02:13:58.474Z,1020.77
2016-12-05T02:14:24.559Z,1020.73
2016-12-05T02:14:50.645Z,1020.74
2016-12-05T02:15:16.743Z,1020.73
2016-12-05T02:15:42.822Z,1020.74
2016-12-05T02:16:08.905Z,1020.72
2016-12-05T02:16:35.000Z,1020.71
2016-12-05T02:17:01.114Z,1020.73
2016-12-05T02:17:27.195Z,1020.7
2016-12-05T02:17:53.291Z,1020.7
2016-12-05T02:18:19.382Z,1020.72
2016-12-05T02:18:45.465Z,1020.67
2016-12-05T02:19:11.564Z,1020.68
2016-12-05T02:19:37.656Z,1020.67
2016-12-05T02:20:03.756Z,1020.7
2016-12-05T02:20:29.849Z,1020.73
2016-12-05T02:20:55.943Z,1020.67
2016-12-05T02:21:22.026Z,1020.67
2016-12-05T02:21:48.116Z,1020.68
2016-12-05T02:22:14.211Z,1020.69
2016-12-05T02:22:40.289Z,1020.68
2016-12-05T02:23:06.375Z,1020.69
2016-12-05T02:23:32.476Z,1020.68
2016-12-05T02:23:58.558Z,1020.67
2016-12-05T02:24:24.640Z,1020.68
2016-12-05T02:24:50.835Z,1020.61
2016-12-05T02:25:16.922Z,1020.64
2016-12-05T02:25:43.017Z,1020.67
2016-12-05T02:26:09.098Z,1020.64
2016-12-05T02:26:35.176Z,1020.65
2016-12-05T02:27:01.276Z,1020.65
2016-12-05T02:27:27.362Z,1020.69
2016-12-05T02:27:53.445Z,1020.62
2016-12-05T02:28:19.538Z,1020.63
2016-12-05T02:28:45.624Z,1020.65
2016-12-05T02:29:11.701Z,1020.65
2016-12-05T02:29:37.792Z,1020.65
2016-12-05T02:30:03.883Z,1020.61
2016-12-05T02:30:29.967Z,1020.64
2016-12-05T02:30:56.054Z,1020.6
2016-12-05T02:31:22.136Z,1020.61
2016-12-05T02:31:48.231Z,1020.66
2016-12-05T02:32:14.315Z,1020.63
2016-12-05T02:32:40.392Z,1020.65
2016-12-05T02:33:06.483Z,1020.63
2016-12-05T02:33:32.574Z,1020.65
2016-12-05T02:33:58.650Z,1020.63
2016-12-05T02:34:24.739Z,1020.59
2016-12-05T02:34:50.837Z,1020.64
2016-12-05T02:35:16.921Z,1020.61
2016-12-05T02:35:43.003Z,1020.68
2016-12-05T02:36:09.091Z,1020.6
2016-12-05T02:36:35.181Z,1020.6
2016-12-05T02:37:01.277Z,1020.62
2016-12-05T02:37:27.354Z,1020.57
2016-12-05T02:37:53.449Z,1020.65
2016-12-05T02:38:19.542Z,1020.61
2016-12-05T02:38:45.619Z,1020.59
2016-12-05T02:39:11.704Z,1020.59
2016-12-05T02:39:37.798Z,1020.64
2016-12-05T02:40:03.882Z,1020.62
2016-12-05T02:40:29.961Z,1020.6
2016-12-05T02:40:56.060Z,1020.59
2016-12-05T02:41:22.143Z,1020.61
2016-12-05T02:41:48.233Z,1020.65
2016-12-05T02:42:14.317Z,1020.64
2016-12-05T02:42:40.405Z,1020.65
2016-12-05T02:43:06.502Z,1020.63
2016-12-05T02:43:32.585Z,1020.64
2016-12-05T02:43:58.663Z,1020.64
2016-12-05T02:44:24.756Z,1020.64
2016-12-05T02:44:50.845Z,1020.62
2016-12-05T02:45:16.928Z,1020.64
2016-12-05T02:45:43.022Z,1020.61
2016-12-05T02:46:09.104Z,1020.65
2016-12-05T02:46:35.183Z,1020.63
2016-12-05T02:47:01.276Z,1020.63
2016-12-05T02:47:27.354Z,1020.62
2016-12-05T02:47:53.452Z,1020.63
2016-12-05T02:48:19.539Z,1020.64
2016-12-05T02:48:45.618Z,1020.64
2016-12-05T02:49:11.714Z,1020.62
2016-12-05T02:49:37.804Z,1020.62
2016-12-05T02:50:03.885Z,1020.6
2016-12-05T02:50:29.974Z,1020.55
2016-12-05T02:50:56.079Z,1020.61
2016-12-05T02:51:22.141Z,1020.58
2016-12-05T02:51:48.231Z,1020.58
2016-12-05T02:52:14.322Z,1020.6
2016-12-05T02:52:40.403Z,1020.57
2016-12-05T02:53:06.495Z,1020.55
2016-12-05T02:53:32.575Z,1020.55
2016-12-05T02:53:58.665Z,1020.54
2016-12-05T02:54:24.756Z,1020.53
2016-12-05T02:54:50.837Z,1020.5
2016-12-05T02:55:16.953Z,1020.57
2016-12-05T02:55:43.050Z,1020.57
2016-12-05T02:56:09.127Z,1020.51
2016-12-05T02:56:35.211Z,1020.49
2016-12-05T02:57:01.336Z,1020.52
2016-12-05T02:57:27.417Z,1020.52
2016-12-05T02:57:53.498Z,1020.53
2016-12-05T02:58:19.583Z,1020.5
2016-12-05T02:58:45.669Z,1020.52
2016-12-05T02:59:11.770Z,1020.49
2016-12-05T02:59:37.847Z,1020.53
2016-12-05T03:00:03.930Z,1020.54
2016-12-05T03:00:30.027Z,1020.53
2016-12-05T03:00:56.106Z,1020.52
2016-12-05T03:01:22.185Z,1020.51
2016-12-05T03:01:48.311Z,1020.5
2016-12-05T03:02:14.395Z,1020.52
2016-12-05T03:02:40.479Z,1020.55
2016-12-05T03:03:06.571Z,1020.53
2016-12-05T03:03:32.652Z,1020.54
2016-12-05T03:03:58.736Z,1020.51
2016-12-05T03:04:24.825Z,1020.53
2016-12-05T03:04:50.918Z,1020.53
2016-12-05T03:05:16.991Z,1020.55
2016-12-05T03:05:43.077Z,1020.51
2016-12-05T03:06:09.171Z,1020.57
2016-12-05T03:06:35.249Z,1020.53
2016-12-05T03:07:01.332Z,1020.5
2016-12-05T03:07:27.425Z,1020.57
2016-12-05T03:07:53.509Z,1020.53
2016-12-05T03:08:19.583Z,1020.52
2016-12-05T03:08:45.677Z,1020.52
2016-12-05T03:09:11.764Z,1020.54
2016-12-05T03:09:37.854Z,1020.57
2016-12-05T03:10:03.932Z,1020.56
2016-12-05T03:10:30.015Z,1020.54
2016-12-05T03:10:56.112Z,1020.53
2016-12-05T03:11:22.219Z,1020.54
2016-12-05T03:11:48.297Z,1020.52
2016-12-05T03:12:14.395Z,1020.53
2016-12-05T03:12:40.481Z,1020.53
2016-12-05T03:13:06.558Z,1020.52
2016-12-05T03:13:32.651Z,1020.56
2016-12-05T03:13:58.736Z,1020.52
2016-12-05T03:14:24.814Z,1020.59
2016-12-05T03:14:50.911Z,1020.56
2016-12-05T03:15:16.990Z,1020.57
2016-12-05T03:15:43.092Z,1020.61
2016-12-05T03:16:09.180Z,1020.57
2016-12-05T03:16:35.263Z,1020.6
2016-12-05T03:17:01.361Z,1020.6
2016-12-05T03:17:27.446Z,1020.6
2016-12-05T03:17:53.528Z,1020.58
2016-12-05T03:18:19.619Z,1020.6
2016-12-05T03:18:45.712Z,1020.6
2016-12-05T03:19:11.791Z,1020.62
2016-12-05T03:19:39.292Z,1020.59
2016-12-05T03:20:05.367Z,1020.61
2016-12-05T03:20:31.462Z,1020.64
2016-12-05T03:20:57.545Z,1020.63
2016-12-05T03:21:23.636Z,1020.61
2016-12-05T03:21:49.722Z,1020.62
2016-12-05T03:22:15.809Z,1020.57
2016-12-05T03:22:41.906Z,1020.61
2016-12-05T03:23:07.991Z,1020.64
2016-12-05T03:23:34.072Z,1020.62
2016-12-05T03:24:00.166Z,1020.64
2016-12-05T03:24:26.255Z,1020.62
2016-12-05T03:24:52.333Z,1020.6
2016-12-05T03:25:18.426Z,1020.61
2016-12-05T03:25:44.524Z,1020.6
2016-12-05T03:26:10.605Z,1020.62
2016-12-05T03:26:36.691Z,1020.57
2016-12-05T03:27:02.771Z,1020.57
2016-12-05T03:27:28.866Z,1020.59
2016-12-05T03:27:54.951Z,1020.59
2016-12-05T03:28:21.031Z,1020.6
2016-12-05T03:28:47.119Z,1020.55
2016-12-05T03:29:13.211Z,1020.57
2016-12-05T03:29:39.286Z,1020.57
2016-12-05T03:30:05.373Z,1020.54
2016-12-05T03:30:31.472Z,1020.55
2016-12-05T03:30:57.550Z,1020.52
2016-12-05T03:31:23.639Z,1020.51
2016-12-05T03:31:49.724Z,1020.53
2016-12-05T03:32:15.813Z,1020.49
2016-12-05T03:32:41.908Z,1020.5
2016-12-05T03:33:07.988Z,1020.49
2016-12-05T03:33:34.078Z,1020.49
2016-12-05T03:34:00.177Z,1020.45
2016-12-05T03:34:26.263Z,1020.44
2016-12-05T03:34:52.351Z,1020.49
2016-12-05T03:35:18.447Z,1020.49
2016-12-05T03:35:44.560Z,1020.47
2016-12-05T03:36:10.638Z,1020.46
2016-12-05T03:36:36.736Z,1020.41
2016-12-05T03:37:02.825Z,1020.4
2016-12-05T03:37:28.919Z,1020.42
2016-12-05T03:37:54.998Z,1020.39
2016-12-05T03:38:21.089Z,1020.42
2016-12-05T03:38:47.177Z,1020.42
2016-12-05T03:39:13.266Z,1020.41
2016-12-05T03:39:39.368Z,1020.38
2016-12-05T03:40:05.465Z,1020.4
2016-12-05T03:40:31.548Z,1020.4
2016-12-05T03:40:57.628Z,1020.41
2016-12-05T03:41:23.722Z,1020.41
2016-12-05T03:41:49.815Z,1020.41
2016-12-05T03:42:15.897Z,1020.41
2016-12-05T03:42:41.988Z,1020.43
2016-12-05T03:43:08.072Z,1020.44
2016-12-05T03:43:34.166Z,1020.4
2016-12-05T03:44:00.252Z,1020.43
2016-12-05T03:44:26.331Z,1020.43
2016-12-05T03:44:52.427Z,1020.4
2016-12-05T03:45:18.516Z,1020.43
2016-12-05T03:45:44.599Z,1020.4
2016-12-05T03:46:10.691Z,1020.42
2016-12-05T03:46:36.787Z,1020.41
2016-12-05T03:47:02.867Z,1020.42
2016-12-05T03:47:28.953Z,1020.43
2016-12-05T03:47:55.055Z,1020.44
2016-12-05T03:48:21.134Z,1020.39
2016-12-05T03:48:47.222Z,1020.37
2016-12-05T03:49:13.316Z,1020.39
2016-12-05T03:49:39.397Z,1020.39
2016-12-05T03:50:05.474Z,1020.4
2016-12-05T03:50:31.570Z,1020.37
2016-12-05T03:50:57.655Z,1020.34
2016-12-05T03:51:23.735Z,1020.38
2016-12-05T03:51:49.830Z,1020.33
2016-12-05T03:52:15.917Z,1020.37
2016-12-05T03:52:41.997Z,1020.34
2016-12-05T03:53:08.091Z,1020.34
2016-12-05T03:53:34.190Z,1020.34
2016-12-05T03:54:00.271Z,1020.36
2016-12-05T03:54:26.357Z,1020.37
2016-12-05T03:54:52.436Z,1020.34
2016-12-05T03:55:18.534Z,1020.35
2016-12-05T03:55:44.715Z,1020.33
2016-12-05T03:56:10.798Z,1020.32
2016-12-05T03:56:36.892Z,1020.31
2016-12-05T03:57:02.986Z,1020.31
2016-12-05T03:57:29.070Z,1020.31
2016-12-05T03:57:55.157Z,1020.3
2016-12-05T03:58:21.249Z,1020.32
2016-12-05T03:58:47.328Z,1020.28
2016-12-05T03:59:13.413Z,1020.28
2016-12-05T03:59:39.502Z,1020.28
2016-12-05T04:00:05.592Z,1020.25
2016-12-05T04:00:31.683Z,1020.24
2016-12-05T04:00:57.758Z,1020.26
2016-12-05T04:01:23.847Z,1020.24
2016-12-05T04:01:49.940Z,1020.21
2016-12-05T04:02:16.019Z,1020.21
2016-12-05T04:02:42.107Z,1020.23
2016-12-05T04:03:08.199Z,1020.22
2016-12-05T04:03:34.274Z,1020.18
2016-12-05T04:04:00.356Z,1020.19
2016-12-05T04:04:26.455Z,1020.18
2016-12-05T04:04:52.547Z,1020.14
2016-12-05T04:05:18.637Z,1020.16
2016-12-05T04:05:44.720Z,1020.15
2016-12-05T04:06:10.829Z,1020.15
2016-12-05T04:06:36.926Z,1020.14
2016-12-05T04:07:03.017Z,1020.16
2016-12-05T04:07:29.098Z,1020.15
2016-12-05T04:07:55.196Z,1020.13
2016-12-05T04:08:21.279Z,1020.14
2016-12-05T04:08:47.355Z,1020.12
2016-12-05T04:09:13.455Z,1020.16
2016-12-05T04:09:39.550Z,1020.14
2016-12-05T04:10:05.630Z,1020.16
2016-12-05T04:10:31.723Z,1020.16
2016-12-05T04:10:57.804Z,1020.14
2016-12-05T04:11:23.906Z,1020.18
2016-12-05T04:11:49.989Z,1020.12
2016-12-05T04:12:16.069Z,1020.15
2016-12-05T04:12:42.167Z,1020.11
2016-12-05T04:13:08.256Z,1020.12
2016-12-05T04:13:34.339Z,1020.11
2016-12-05T04:14:00.433Z,1020.1
2016-12-05T04:14:26.532Z,1020.12
2016-12-05T04:14:52.608Z,1020.1
2016-12-05T04:15:18.696Z,1020.07
2016-12-05T04:15:44.792Z,1020.08
2016-12-05T04:16:10.877Z,1020.1
2016-12-05T04:16:36.975Z,1020.1
2016-12-05T04:17:03.054Z,1020.09
2016-12-05T04:17:29.152Z,1020.1
2016-12-05T04:17:55.248Z,1020.1
2016-12-05T04:18:21.326Z,1020.1
2016-12-05T04:18:47.418Z,1020.11
2016-12-05T04:19:13.514Z,1020.11
2016-12-05T04:19:39.591Z,1020.11
2016-12-05T04:20:05.705Z,1020.07
2016-12-05T04:20:31.798Z,1020.05
2016-12-05T04:20:57.883Z,1020.1
2016-12-05T04:21:23.965Z,1020.05
2016-12-05T04:21:50.054Z,1020.05
2016-12-05T04:22:16.139Z,1020.03
2016-12-05T04:22:42.237Z,1020.04
2016-12-05T04:23:08.318Z,1020
2016-12-05T04:23:34.400Z,1020.01
2016-12-05T04:24:00.493Z,1020.02
2016-12-05T04:24:26.570Z,1019.99
2016-12-05T04:24:52.646Z,1019.98
2016-12-05T04:25:18.749Z,1020.01
2016-12-05T04:25:44.937Z,1019.97
2016-12-05T04:26:11.021Z,1020
2016-12-05T04:26:37.124Z,1019.98
2016-12-05T04:27:03.209Z,1020
2016-12-05T04:27:29.323Z,1019.97
2016-12-05T04:27:55.405Z,1019.95
2016-12-05T04:28:21.480Z,1019.96
2016-12-05T04:28:47.579Z,1020.01
2016-12-05T04:29:13.661Z,1019.97
2016-12-05T04:29:39.745Z,1019.97
2016-12-05T04:30:05.839Z,1019.98
2016-12-05T04:30:31.931Z,1019.99
2016-12-05T04:30:58.013Z,1020
2016-12-05T04:31:24.107Z,1019.97
2016-12-05T04:31:50.200Z,1019.97
2016-12-05T04:32:16.279Z,1019.94
2016-12-05T04:32:42.365Z,1019.98
2016-12-05T04:33:08.458Z,1019.98
2016-12-05T04:33:34.536Z,1019.95
2016-12-05T04:34:00.623Z,1019.96
2016-12-05T04:34:26.717Z,1019.95
2016-12-05T04:34:52.793Z,1019.92
2016-12-05T04:35:18.873Z,1019.97
2016-12-05T04:35:44.973Z,1019.97
2016-12-05T04:36:11.061Z,1019.96
2016-12-05T04:36:37.142Z,1019.95
2016-12-05T04:37:03.236Z,1019.92
2016-12-05T04:37:29.322Z,1019.91
2016-12-05T04:37:55.400Z,1019.95
2016-12-05T04:38:21.489Z,1019.95
2016-12-05T04:38:47.570Z,1019.95
2016-12-05T04:39:13.674Z,1019.94
2016-12-05T04:39:39.762Z,1019.93
2016-12-05T04:40:05.845Z,1019.94
2016-12-05T04:40:31.937Z,1019.97
2016-12-05T04:40:58.025Z,1019.97
2016-12-05T04:41:24.105Z,1019.96
2016-12-05T04:41:50.199Z,1019.98
2016-12-05T04:42:16.294Z,1020
2016-12-05T04:42:42.372Z,1020.01
2016-12-05T04:43:08.459Z,1020.01
2016-12-05T04:43:34.553Z,1020.04
2016-12-05T04:44:00.636Z,1020.01
2016-12-05T04:44:26.730Z,1020.03
2016-12-05T04:44:52.811Z,1020.03
2016-12-05T04:45:18.902Z,1020.03
2016-12-05T04:45:44.996Z,1020.02
2016-12-05T04:46:11.076Z,1020.04
2016-12-05T04:46:37.165Z,1020.01
2016-12-05T04:47:03.258Z,1020.08
2016-12-05T04:47:29.337Z,1020.08
2016-12-05T04:47:55.422Z,1020.08
2016-12-05T04:48:21.518Z,1020.08
2016-12-05T04:48:47.602Z,1020.07
2016-12-05T04:49:13.683Z,1020.06
2016-12-05T04:49:39.775Z,1020.05
2016-12-05T04:50:05.863Z,1020.07
2016-12-05T04:50:31.960Z,1020.07
2016-12-05T04:50:58.039Z,1020.05
2016-12-05T04:51:24.127Z,1020.08
2016-12-05T04:51:50.223Z,1020.07
2016-12-05T04:52:16.305Z,1020.07
2016-12-05T04:52:42.389Z,1020.09
2016-12-05T04:53:08.485Z,1020.05
2016-12-05T04:53:34.572Z,1020.06
2016-12-05T04:54:00.649Z,1020.06
2016-12-05T04:54:26.746Z,1020.07
2016-12-05T04:54:52.835Z,1020.09
2016-12-05T04:55:18.928Z,1020.09
2016-12-05T04:55:45.008Z,1020.05
2016-12-05T04:56:11.188Z,1020.05
2016-12-05T04:56:37.283Z,1020.06
2016-12-05T04:57:03.368Z,1020.06
2016-12-05T04:57:29.451Z,1020.07
2016-12-05T04:57:55.546Z,1020.08
2016-12-05T04:58:21.634Z,1020.08
2016-12-05T04:58:47.719Z,1020.07
2016-12-05T04:59:13.812Z,1020.1
2016-12-05T04:59:39.904Z,1020.1
2016-12-05T05:00:05.982Z,1020.14
2016-12-05T05:00:32.065Z,1020.12
2016-12-05T05:00:58.146Z,1020.09
2016-12-05T05:01:24.541Z,1020.13
2016-12-05T05:01:50.633Z,1020.11
2016-12-05T05:02:16.719Z,1020.1
2016-12-05T05:02:42.808Z,1020.12
2016-12-05T05:03:08.908Z,1020.12
2016-12-05T05:03:34.989Z,1020.13
2016-12-05T05:04:01.079Z,1020.1
2016-12-05T05:04:27.172Z,1020.11
2016-12-05T05:04:53.246Z,1020.11
2016-12-05T05:05:19.336Z,1020.11
2016-12-05T05:05:45.432Z,1020.12
2016-12-05T05:06:11.512Z,1020.11
2016-12-05T05:06:37.607Z,1020.09
2016-12-05T05:07:03.683Z,1020.11
2016-12-05T05:07:29.770Z,1020.13
2016-12-05T05:07:55.864Z,1020.1
2016-12-05T05:08:21.967Z,1020.13
2016-12-05T05:08:48.058Z,1020.14
2016-12-05T05:09:14.180Z,1020.09
2016-12-05T05:09:40.259Z,1020.11
2016-12-05T05:10:06.339Z,1020.1
2016-12-05T05:10:32.440Z,1020.09
2016-12-05T05:10:58.520Z,1020.08
2016-12-05T05:11:24.601Z,1020.11
2016-12-05T05:11:50.693Z,1020.08
2016-12-05T05:12:16.773Z,1020.08
2016-12-05T05:12:42.863Z,1020.06
2016-12-05T05:13:08.949Z,1020.06
2016-12-05T05:13:35.033Z,1020.08
2016-12-05T05:14:01.131Z,1020.09
2016-12-05T05:14:27.216Z,1020.09
2016-12-05T05:14:53.300Z,1020.1
2016-12-05T05:15:19.396Z,1020.1
2016-12-05T05:15:45.484Z,1020.1
2016-12-05T05:16:11.562Z,1020.14
2016-12-05T05:16:37.657Z,1020.12
2016-12-05T05:17:03.751Z,1020.15